createdAt,value
2019-03-25T00:01:26.432Z,99273.15
2019-03-25T00:03:55.885Z,99279.20
2019-03-25T00:06:25.376Z,99277.25
2019-03-25T00:09:04.913Z,99283.11
2019-03-25T00:11:27.894Z,99273.58
2019-03-25T00:13:57.664Z,99272.23
2019-03-25T00:16:27.492Z,99278.45
2019-03-25T00:18:56.961Z,99272.62
2019-03-25T00:21:29.145Z,99276.50
2019-03-25T00:23:58.687Z,99278.94
2019-03-25T00:26:28.174Z,99272.94
2019-03-25T00:29:16.995Z,99271.07
2019-03-25T00:31:46.458Z,99266.03
2019-03-25T00:34:15.921Z,99263.63
2019-03-25T00:36:45.617Z,99264.95
2019-03-25T00:39:15.174Z,99260.98
2019-03-25T00:41:44.714Z,99256.50
2019-03-25T00:44:14.217Z,99255.80
2019-03-25T00:46:43.685Z,99253.86
2019-03-25T00:49:14.601Z,99248.30
2019-03-25T00:51:44.002Z,99252.11
2019-03-25T00:54:32.809Z,99244.23
2019-03-25T00:57:02.508Z,99241.57
2019-03-25T00:59:32.003Z,99245.73
2019-03-25T01:02:01.489Z,99247.23
2019-03-25T01:04:31.080Z,99247.75
2019-03-25T01:07:00.559Z,99251.12
2019-03-25T01:09:30.046Z,99252.59
2019-03-25T01:11:59.854Z,99247.80
2019-03-25T01:14:29.354Z,99247.84
2019-03-25T01:16:58.806Z,99246.30
2019-03-25T01:19:28.330Z,99248.13
2019-03-25T01:21:57.797Z,99244.45
2019-03-25T01:24:27.272Z,99253.70
2019-03-25T01:26:57.120Z,99254.35
2019-03-25T01:29:26.622Z,99258.05
2019-03-25T01:31:56.145Z,99253.59
2019-03-25T01:34:25.635Z,99250.97
2019-03-25T01:36:55.097Z,99245.48
2019-03-25T01:39:24.587Z,99240.95
2019-03-25T01:41:55.412Z,99239.26
2019-03-25T01:44:24.902Z,99240.27
2019-03-25T01:46:54.383Z,99239.17
2019-03-25T01:49:23.878Z,99233.65
2019-03-25T01:51:53.391Z,99227.31
2019-03-25T01:54:22.848Z,99227.89
2019-03-25T01:56:52.376Z,99221.69
2019-03-25T01:59:21.855Z,99229.09
2019-03-25T02:01:51.219Z,99233.77
2019-03-25T02:04:20.737Z,99238.27
2019-03-25T02:06:51.734Z,99239.80
2019-03-25T02:09:21.187Z,99239.95
2019-03-25T02:12:10.014Z,99239.14
2019-03-25T02:14:39.473Z,99240.05
2019-03-25T02:17:08.964Z,99243.19
2019-03-25T02:19:57.801Z,99240.83
2019-03-25T02:22:27.411Z,99242.89
2019-03-25T02:24:57.077Z,99234.76
2019-03-25T02:27:26.575Z,99220.55
2019-03-25T02:29:56.057Z,99226.06
2019-03-25T02:32:25.551Z,99223.91
2019-03-25T02:34:55.038Z,99224.94
2019-03-25T02:37:24.537Z,99226.74
2019-03-25T02:39:53.986Z,99220.12
2019-03-25T02:42:23.870Z,99223.09
2019-03-25T02:44:53.385Z,99225.45
2019-03-25T02:47:22.884Z,99227.22
2019-03-25T02:49:52.350Z,99222.26
2019-03-25T02:52:21.823Z,99216.91
2019-03-25T02:54:51.354Z,99219.05
2019-03-25T02:57:22.389Z,99215.70
2019-03-25T02:59:51.829Z,99214.48
2019-03-25T03:02:21.372Z,99217.92
2019-03-25T03:04:50.919Z,99215.39
2019-03-25T03:07:20.378Z,99212.02
2019-03-25T03:09:49.856Z,99214.44
2019-03-25T03:12:38.654Z,99206.45
2019-03-25T03:15:08.841Z,99200.84
2019-03-25T03:17:38.314Z,99201.94
2019-03-25T03:20:09.047Z,99196.98
2019-03-25T03:22:38.611Z,99196.22
2019-03-25T03:25:08.558Z,99191.90
2019-03-25T03:27:38.052Z,99196.16
2019-03-25T03:30:08.523Z,99197.90
2019-03-25T03:32:37.995Z,99194.16
2019-03-25T03:35:08.695Z,99195.06
2019-03-25T03:37:38.131Z,99192.94
2019-03-25T03:40:07.957Z,99192.08
2019-03-25T03:42:38.611Z,99195.61
2019-03-25T03:45:08.705Z,99187.11
2019-03-25T03:47:38.209Z,99188.55
2019-03-25T03:50:09.365Z,99188.92
2019-03-25T03:52:39.369Z,99185.92
2019-03-25T03:55:09.579Z,99182.13
2019-03-25T03:57:40.731Z,99183.56
2019-03-25T04:00:14.755Z,99191.16
2019-03-25T04:02:45.265Z,99189.60
2019-03-25T04:05:14.772Z,99182.61
2019-03-25T04:07:44.327Z,99179.25
2019-03-25T04:10:14.079Z,99176.26
2019-03-25T04:12:45.107Z,99171.75
2019-03-25T04:15:19.173Z,99180.42
2019-03-25T04:17:48.659Z,99174.00
2019-03-25T04:20:18.187Z,99182.72
2019-03-25T04:23:06.984Z,99181.59
2019-03-25T04:25:36.507Z,99185.30
2019-03-25T04:28:05.991Z,99179.73
2019-03-25T04:30:35.471Z,99178.66
2019-03-25T04:33:04.992Z,99175.19
2019-03-25T04:35:34.520Z,99171.55
2019-03-25T04:38:05.523Z,99169.40
2019-03-25T04:40:34.999Z,99163.19
2019-03-25T04:43:04.558Z,99161.48
2019-03-25T04:45:34.019Z,99167.92
2019-03-25T04:48:03.526Z,99167.20
2019-03-25T04:50:52.293Z,99170.03
2019-03-25T04:53:21.817Z,99172.99
2019-03-25T04:55:54.145Z,99171.41
2019-03-25T04:58:23.650Z,99165.52
2019-03-25T05:00:53.351Z,99169.67
2019-03-25T05:03:22.847Z,99170.52
2019-03-25T05:05:52.303Z,99167.86
2019-03-25T05:08:21.802Z,99159.92
2019-03-25T05:10:51.293Z,99160.13
2019-03-25T05:13:29.637Z,99161.92
2019-03-25T05:15:59.089Z,99155.14
2019-03-25T05:18:31.235Z,99145.69
2019-03-25T05:21:01.056Z,99147.62
2019-03-25T05:23:30.590Z,99128.00
2019-03-25T05:26:00.062Z,99129.20
2019-03-25T05:28:48.929Z,99139.66
2019-03-25T05:31:18.392Z,99140.63
2019-03-25T05:33:47.878Z,99144.38
2019-03-25T05:36:17.394Z,99148.16
2019-03-25T05:38:46.874Z,99151.95
2019-03-25T05:41:16.371Z,99164.13
2019-03-25T05:43:47.007Z,99156.72
2019-03-25T05:46:16.488Z,99157.22
2019-03-25T05:48:45.987Z,99153.05
2019-03-25T05:51:17.029Z,99153.56
2019-03-25T05:53:46.557Z,99150.83
2019-03-25T05:56:16.041Z,99149.92
2019-03-25T05:58:45.510Z,99147.52
2019-03-25T06:01:15.313Z,99155.88
2019-03-25T06:03:45.008Z,99150.62
2019-03-25T06:06:14.557Z,99150.36
2019-03-25T06:08:44.062Z,99145.75
2019-03-25T06:11:13.567Z,99153.38
2019-03-25T06:13:43.036Z,99155.05
2019-03-25T06:16:12.521Z,99153.78
2019-03-25T06:18:42.021Z,99147.66
2019-03-25T06:21:11.523Z,99149.20
2019-03-25T06:23:41.006Z,99141.97
2019-03-25T06:26:10.492Z,99144.30
2019-03-25T06:28:39.981Z,99143.98
2019-03-25T06:31:09.489Z,99143.25
2019-03-25T06:33:44.911Z,99021.81
2019-03-25T06:36:14.665Z,99133.08
2019-03-25T06:38:44.183Z,99141.38
2019-03-25T06:41:13.693Z,99139.73
2019-03-25T06:43:43.231Z,99141.45
2019-03-25T06:46:14.183Z,99147.89
2019-03-25T06:48:43.674Z,99145.88
2019-03-25T06:51:13.165Z,99151.33
2019-03-25T06:53:42.752Z,99139.47
2019-03-25T06:56:12.249Z,99138.72
2019-03-25T06:58:41.766Z,99139.30
2019-03-25T07:01:11.251Z,99140.87
2019-03-25T07:03:40.716Z,99139.56
2019-03-25T07:06:10.506Z,99139.37
2019-03-25T07:08:39.971Z,99140.14
2019-03-25T07:11:10.640Z,99143.56
2019-03-25T07:13:40.314Z,99138.32
2019-03-25T07:16:10.033Z,99126.95
2019-03-25T07:18:39.489Z,99126.16
2019-03-25T07:21:08.964Z,99129.02
2019-03-25T07:23:38.603Z,99120.72
2019-03-25T07:26:08.087Z,99120.63
2019-03-25T07:28:56.917Z,99107.24
2019-03-25T07:31:26.414Z,99088.97
2019-03-25T07:33:55.879Z,99070.27
2019-03-25T07:36:25.358Z,99057.28
2019-03-25T07:38:54.833Z,99058.43
2019-03-25T07:41:24.538Z,99064.59
2019-03-25T07:43:54.015Z,99076.74
2019-03-25T07:46:23.883Z,99084.23
2019-03-25T07:48:53.489Z,99086.95
2019-03-25T07:51:22.973Z,99088.91
2019-03-25T07:53:52.441Z,99086.30
2019-03-25T07:56:21.955Z,99071.94
2019-03-25T07:58:51.458Z,99074.88
2019-03-25T08:01:21.073Z,99072.66
2019-03-25T08:03:50.589Z,99074.92
2019-03-25T08:06:20.110Z,99089.23
2019-03-25T08:08:49.555Z,99091.73
2019-03-25T08:11:19.050Z,99093.56
2019-03-25T08:13:48.527Z,99105.58
2019-03-25T08:16:18.026Z,99104.46
2019-03-25T08:18:47.510Z,99119.18
2019-03-25T08:21:17.022Z,99134.34
2019-03-25T08:23:46.488Z,99129.07
2019-03-25T08:26:15.982Z,99133.58
2019-03-25T08:28:48.290Z,99133.95
2019-03-25T08:31:17.788Z,99139.25
2019-03-25T08:33:47.344Z,99141.20
2019-03-25T08:36:18.497Z,99146.44
2019-03-25T08:38:48.038Z,99135.53
2019-03-25T08:41:17.707Z,99136.19
2019-03-25T08:43:47.226Z,99144.76
2019-03-25T08:46:16.654Z,99148.63
2019-03-25T08:48:46.390Z,99165.48
2019-03-25T08:51:15.895Z,99165.09
2019-03-25T08:53:45.414Z,99157.69
2019-03-25T08:56:14.897Z,99160.71
2019-03-25T08:58:44.401Z,99160.89
2019-03-25T09:01:13.891Z,99146.44
2019-03-25T09:03:43.502Z,99154.34
2019-03-25T09:06:15.242Z,99146.88
2019-03-25T09:08:44.786Z,99125.53
2019-03-25T09:11:14.237Z,99122.20
2019-03-25T09:13:45.277Z,99107.70
2019-03-25T09:16:14.979Z,99119.39
2019-03-25T09:18:44.454Z,99117.73
2019-03-25T09:21:15.783Z,99117.82
2019-03-25T09:23:50.968Z,99033.14
2019-03-25T09:26:20.486Z,99122.69
2019-03-25T09:28:50.075Z,99126.19
2019-03-25T09:31:20.744Z,99116.02
2019-03-25T09:33:51.009Z,99126.63
2019-03-25T09:36:22.070Z,99138.51
2019-03-25T09:38:52.002Z,99140.44
2019-03-25T09:41:21.994Z,99144.38
2019-03-25T09:43:51.831Z,99152.35
2019-03-25T09:46:22.034Z,99143.92
2019-03-25T09:48:52.163Z,99155.13
2019-03-25T09:51:21.844Z,99146.11
2019-03-25T09:53:51.374Z,99141.52
2019-03-25T09:56:20.939Z,99135.66
2019-03-25T09:58:50.673Z,99126.88
2019-03-25T10:01:20.230Z,99117.69
2019-03-25T10:03:49.884Z,99114.51
2019-03-25T10:06:19.601Z,99113.61
2019-03-25T10:08:49.128Z,99110.13
2019-03-25T10:11:18.709Z,99075.84
2019-03-25T10:13:48.181Z,99079.94
2019-03-25T10:16:17.713Z,99093.47
2019-03-25T10:18:47.221Z,99092.45
2019-03-25T10:21:16.713Z,99111.50
2019-03-25T10:23:46.256Z,99114.97
2019-03-25T10:26:15.763Z,99112.56
2019-03-25T10:28:48.950Z,99126.24
2019-03-25T10:31:17.484Z,99128.58
2019-03-25T10:33:47.121Z,99132.34
2019-03-25T10:36:16.617Z,99135.48
2019-03-25T10:38:46.070Z,99121.45
2019-03-25T10:41:15.674Z,99131.50
2019-03-25T10:43:45.178Z,99133.34
2019-03-25T10:46:14.621Z,99130.70
2019-03-25T10:48:44.126Z,99124.16
2019-03-25T10:51:13.614Z,99114.83
2019-03-25T10:53:43.076Z,99078.13
2019-03-25T10:56:12.602Z,99066.13
2019-03-25T10:58:42.163Z,99046.59
2019-03-25T11:01:11.960Z,99040.77
2019-03-25T11:03:41.639Z,99037.31
2019-03-25T11:06:11.175Z,99021.79
2019-03-25T11:08:40.650Z,99032.76
2019-03-25T11:11:10.169Z,99024.50
2019-03-25T11:13:39.618Z,99019.39
2019-03-25T11:16:10.407Z,99013.02
2019-03-25T11:18:39.980Z,99016.45
2019-03-25T11:21:09.534Z,99017.20
2019-03-25T11:23:40.543Z,99002.30
2019-03-25T11:26:10.055Z,99001.34
2019-03-25T11:28:39.517Z,99010.45
2019-03-25T11:31:09.015Z,99017.06
2019-03-25T11:33:38.519Z,99017.34
2019-03-25T11:36:08.204Z,99003.22
2019-03-25T11:38:37.671Z,99023.53
2019-03-25T11:41:07.223Z,99008.77
2019-03-25T11:43:38.987Z,99028.50
2019-03-25T11:46:08.564Z,99026.17
2019-03-25T11:48:38.091Z,99032.91
2019-03-25T11:51:09.017Z,99041.11
2019-03-25T11:53:38.567Z,99027.89
2019-03-25T11:56:09.649Z,99022.22
2019-03-25T11:58:39.126Z,99032.97
2019-03-25T12:01:08.588Z,99020.34
2019-03-25T12:03:38.092Z,99016.74
2019-03-25T12:06:07.995Z,99005.18
2019-03-25T12:08:37.493Z,99015.36
2019-03-25T12:11:07.095Z,99011.05
2019-03-25T12:13:36.570Z,99015.28
2019-03-25T12:16:06.253Z,99017.39
2019-03-25T12:18:35.758Z,99015.91
2019-03-25T12:21:05.329Z,99034.55
2019-03-25T12:23:34.797Z,99031.84
2019-03-25T12:26:04.219Z,99039.43
2019-03-25T12:28:33.533Z,99027.52
2019-03-25T12:31:03.028Z,99015.70
2019-03-25T12:33:32.536Z,99018.66
2019-03-25T12:36:02.015Z,99033.78
2019-03-25T12:38:31.498Z,99038.16
2019-03-25T12:41:01.105Z,99034.94
2019-03-25T12:43:30.828Z,99024.94
2019-03-25T12:46:00.386Z,99013.59
2019-03-25T12:48:29.906Z,99027.50
2019-03-25T12:50:59.360Z,99048.05
2019-03-25T12:53:28.829Z,99068.41
2019-03-25T12:55:59.369Z,99105.72
2019-03-25T12:58:28.831Z,99156.09
2019-03-25T13:00:58.302Z,99135.34
2019-03-25T13:03:27.805Z,99155.61
2019-03-25T13:05:57.308Z,99156.61
2019-03-25T13:08:33.104Z,99156.13
2019-03-25T13:10:58.085Z,99146.02
2019-03-25T13:13:27.540Z,99136.28
2019-03-25T13:15:57.087Z,99128.78
2019-03-25T13:18:26.519Z,99115.17
2019-03-25T13:20:55.980Z,99118.03
2019-03-25T13:23:25.448Z,99111.78
2019-03-25T13:25:54.988Z,99110.77
2019-03-25T13:28:24.516Z,99113.72
2019-03-25T13:30:54.003Z,99118.17
2019-03-25T13:33:23.583Z,99113.36
2019-03-25T13:35:53.095Z,99115.95
2019-03-25T13:38:22.600Z,99113.16
2019-03-25T13:40:52.087Z,99120.62
2019-03-25T13:43:21.582Z,99121.89
2019-03-25T13:45:51.073Z,99130.49
2019-03-25T13:48:20.911Z,99143.94
2019-03-25T13:50:50.406Z,99183.42
2019-03-25T13:53:19.859Z,99224.09
2019-03-25T13:55:49.366Z,99265.23
2019-03-25T13:58:18.891Z,99285.03
2019-03-25T14:00:48.379Z,99321.95
2019-03-25T14:03:17.857Z,99328.97
2019-03-25T14:05:47.337Z,99340.34
2019-03-25T14:08:16.783Z,99327.53
2019-03-25T14:10:46.158Z,99266.05
2019-03-25T14:13:15.602Z,99237.38
2019-03-25T14:15:45.084Z,99229.86
2019-03-25T14:18:14.569Z,99222.59
2019-03-25T14:20:44.084Z,99219.39
2019-03-25T14:23:13.538Z,99223.63
2019-03-25T14:25:43.001Z,99228.17
2019-03-25T14:28:12.449Z,99217.54
2019-03-25T14:30:43.417Z,99209.62
2019-03-25T14:33:12.888Z,99200.80
2019-03-25T14:35:42.335Z,99196.36
2019-03-25T14:38:11.824Z,99202.66
2019-03-25T14:40:41.321Z,99205.22
2019-03-25T14:43:10.774Z,99198.33
2019-03-25T14:45:40.297Z,99187.94
2019-03-25T14:48:09.805Z,99190.75
2019-03-25T14:50:39.257Z,99182.15
2019-03-25T14:53:10.333Z,99183.24
2019-03-25T14:55:41.582Z,99186.97
2019-03-25T14:58:11.043Z,99193.56
2019-03-25T15:00:40.667Z,99194.11
2019-03-25T15:03:10.506Z,99194.52
2019-03-25T15:05:40.056Z,99202.69
2019-03-25T15:08:09.529Z,99191.95
2019-03-25T15:10:39.020Z,99196.03
2019-03-25T15:13:08.499Z,99190.98
2019-03-25T15:15:38.032Z,99196.75
2019-03-25T15:18:15.430Z,99190.09
2019-03-25T15:20:38.951Z,99194.13
2019-03-25T15:23:08.439Z,99186.33
2019-03-25T15:25:37.904Z,99186.64
2019-03-25T15:28:07.367Z,99184.00
2019-03-25T15:30:36.919Z,99185.97
2019-03-25T15:33:06.430Z,99183.06
2019-03-25T15:35:35.902Z,99181.12
2019-03-25T15:38:05.371Z,99184.29
2019-03-25T15:40:35.001Z,99187.00
2019-03-25T15:43:04.532Z,99188.19
2019-03-25T15:45:34.051Z,99179.98
2019-03-25T15:48:03.525Z,99181.39
2019-03-25T15:50:32.984Z,99180.95
2019-03-25T15:53:02.495Z,99174.70
2019-03-25T15:55:31.999Z,99188.38
2019-03-25T15:58:25.920Z,99182.67
2019-03-25T16:00:52.080Z,99179.98
2019-03-25T16:03:21.625Z,99179.79
2019-03-25T16:05:51.122Z,99184.84
2019-03-25T16:08:22.177Z,99181.95
2019-03-25T16:10:51.989Z,99176.20
2019-03-25T16:13:21.664Z,99188.03
2019-03-25T16:15:51.434Z,99191.20
2019-03-25T16:18:25.423Z,99188.95
2019-03-25T16:20:54.912Z,99201.27
2019-03-25T16:23:25.891Z,99207.67
2019-03-25T16:25:55.377Z,99209.97
2019-03-25T16:28:24.840Z,99207.16
2019-03-25T16:30:59.015Z,99217.33
2019-03-25T16:33:25.552Z,99216.45
2019-03-25T16:35:55.026Z,99226.33
2019-03-25T16:38:24.601Z,99222.95
2019-03-25T16:40:54.595Z,99234.54
2019-03-25T16:43:24.135Z,99236.20
2019-03-25T16:45:53.647Z,99232.10
2019-03-25T16:48:23.137Z,99231.06
2019-03-25T16:50:52.613Z,99230.55
2019-03-25T16:53:22.379Z,99232.77
2019-03-25T16:55:51.885Z,99225.34
2019-03-25T16:58:21.360Z,99222.95
2019-03-25T17:00:50.882Z,99224.19
2019-03-25T17:03:20.331Z,99222.25
2019-03-25T17:05:49.814Z,99228.16
2019-03-25T17:08:20.648Z,99239.77
2019-03-25T17:10:50.134Z,99243.67
2019-03-25T17:13:19.583Z,99244.52
2019-03-25T17:15:49.096Z,99250.34
2019-03-25T17:18:18.555Z,99254.72
2019-03-25T17:20:48.033Z,99254.00
2019-03-25T17:23:17.511Z,99256.97
2019-03-25T17:25:52.955Z,99273.47
2019-03-25T17:28:18.225Z,99272.55
2019-03-25T17:30:48.977Z,99295.61
2019-03-25T17:33:24.176Z,99304.23
2019-03-25T17:35:53.624Z,99318.59
2019-03-25T17:38:23.538Z,99339.80
2019-03-25T17:40:53.023Z,99369.59
2019-03-25T17:43:23.980Z,99369.37
2019-03-25T17:45:53.488Z,99378.01
2019-03-25T17:48:28.806Z,99371.59
2019-03-25T17:50:58.348Z,99367.98
2019-03-25T17:53:27.942Z,99359.91
2019-03-25T17:55:57.384Z,99354.62
2019-03-25T17:58:26.866Z,99347.17
2019-03-25T18:03:51.353Z,99233.92
2019-03-25T18:06:20.820Z,99371.56
2019-03-25T18:08:50.280Z,99368.17
2019-03-25T18:11:22.708Z,99373.44
2019-03-25T18:13:51.424Z,99366.69
2019-03-25T18:16:22.496Z,99360.91
2019-03-25T18:18:52.007Z,99361.05
2019-03-25T18:21:21.530Z,99367.07
2019-03-25T18:23:51.042Z,99364.97
2019-03-25T18:26:22.097Z,99379.67
2019-03-25T18:28:51.555Z,99388.20
2019-03-25T18:31:21.212Z,99380.59
2019-03-25T18:33:50.781Z,99381.45
2019-03-25T18:36:20.257Z,99377.35
2019-03-25T18:38:49.715Z,99379.42
2019-03-25T18:41:19.215Z,99379.20
2019-03-25T18:43:48.728Z,99380.34
2019-03-25T18:46:18.276Z,99374.98
2019-03-25T18:48:47.928Z,99386.70
2019-03-25T18:51:17.545Z,99380.97
2019-03-25T18:53:48.536Z,99396.61
2019-03-25T18:56:18.215Z,99403.34
2019-03-25T18:58:47.778Z,99412.23
2019-03-25T19:01:17.590Z,99422.53
2019-03-25T19:03:47.222Z,99428.95
2019-03-25T19:06:17.300Z,99429.72
2019-03-25T19:09:07.869Z,99432.52
2019-03-25T19:11:37.362Z,99455.08
2019-03-25T19:14:06.858Z,99465.28
2019-03-25T19:16:36.355Z,99471.39
2019-03-25T19:19:07.354Z,99467.16
2019-03-25T19:21:36.809Z,99474.25
2019-03-25T19:24:25.637Z,99475.03
2019-03-25T19:26:55.139Z,99472.11
2019-03-25T19:29:24.580Z,99478.89
2019-03-25T19:32:05.850Z,99478.30
2019-03-25T19:34:25.396Z,99475.52
2019-03-25T19:36:54.898Z,99476.31
2019-03-25T19:39:43.842Z,99476.94
2019-03-25T19:42:13.295Z,99476.45
2019-03-25T19:44:42.783Z,99478.21
2019-03-25T19:47:12.269Z,99479.23
2019-03-25T19:49:41.717Z,99479.11
2019-03-25T19:52:11.213Z,99479.33
2019-03-25T19:54:40.727Z,99474.42
2019-03-25T19:57:10.163Z,99476.82
2019-03-25T19:59:39.655Z,99477.03
2019-03-25T20:02:18.296Z,99478.94
2019-03-25T20:04:40.610Z,99470.46
2019-03-25T20:07:10.187Z,99467.09
2019-03-25T20:09:42.450Z,99472.55
2019-03-25T20:12:11.104Z,99485.44
2019-03-25T20:14:40.576Z,99487.59
2019-03-25T20:17:10.135Z,99489.66
2019-03-25T20:19:39.592Z,99497.67
2019-03-25T20:22:09.119Z,99505.85
2019-03-25T20:24:38.659Z,99509.89
2019-03-25T20:27:08.130Z,99515.02
2019-03-25T20:29:37.605Z,99522.67
2019-03-25T20:32:07.108Z,99530.21
2019-03-25T20:34:37.793Z,99529.09
2019-03-25T20:37:07.717Z,99531.48
2019-03-25T20:39:56.598Z,99532.58
2019-03-25T20:42:26.080Z,99545.73
2019-03-25T20:44:55.587Z,99550.66
2019-03-25T20:47:25.076Z,99555.37
2019-03-25T20:49:54.575Z,99564.45
2019-03-25T20:52:24.632Z,99568.89
2019-03-25T20:54:54.469Z,99570.00
2019-03-25T20:57:43.276Z,99573.84
2019-03-25T21:00:14.373Z,99573.50
2019-03-25T21:02:45.326Z,99579.74
2019-03-25T21:05:15.434Z,99583.45
2019-03-25T21:07:44.909Z,99592.61
2019-03-25T21:10:14.880Z,99598.25
2019-03-25T21:12:44.345Z,99599.08
2019-03-25T21:15:14.338Z,99600.20
2019-03-25T21:17:43.799Z,99606.61
2019-03-25T21:20:13.709Z,99609.44
2019-03-25T21:22:43.322Z,99612.89
2019-03-25T21:25:13.203Z,99620.00
2019-03-25T21:28:02.164Z,99616.48
2019-03-25T21:30:31.685Z,99621.13
2019-03-25T21:33:02.620Z,99620.42
2019-03-25T21:35:32.182Z,99617.55
2019-03-25T21:38:01.673Z,99613.31
2019-03-25T21:40:31.224Z,99623.67
2019-03-25T21:43:00.775Z,99629.45
2019-03-25T21:45:30.338Z,99631.45
2019-03-25T21:47:59.772Z,99634.20
2019-03-25T21:50:29.305Z,99635.37
2019-03-25T21:52:58.844Z,99633.88
2019-03-25T21:55:28.315Z,99634.06
2019-03-25T21:57:57.900Z,99634.82
2019-03-25T22:00:27.617Z,99634.08
2019-03-25T22:02:57.102Z,99643.25
2019-03-25T22:05:26.629Z,99644.12
2019-03-25T22:07:56.119Z,99649.80
2019-03-25T22:10:25.599Z,99652.73
2019-03-25T22:12:55.073Z,99657.98
2019-03-25T22:15:24.602Z,99658.79
2019-03-25T22:17:54.228Z,99663.54
2019-03-25T22:20:23.790Z,99665.97
2019-03-25T22:22:53.244Z,99664.85
2019-03-25T22:25:22.696Z,99665.31
2019-03-25T22:27:52.234Z,99666.36
2019-03-25T22:30:21.756Z,99664.16
2019-03-25T22:32:51.182Z,99667.20
2019-03-25T22:35:20.690Z,99667.41
2019-03-25T22:37:50.164Z,99666.83
2019-03-25T22:40:19.660Z,99664.58
2019-03-25T22:42:49.141Z,99675.44
2019-03-25T22:45:23.137Z,99675.55
2019-03-25T22:47:52.606Z,99674.91
2019-03-25T22:50:26.723Z,99676.35
2019-03-25T22:52:57.436Z,99673.31
2019-03-25T22:55:27.336Z,99684.82
2019-03-25T22:58:16.138Z,99687.50
2019-03-25T23:00:46.243Z,99692.23
2019-03-25T23:03:16.044Z,99696.86
2019-03-25T23:05:47.404Z,99697.16
2019-03-25T23:08:19.803Z,99693.16
2019-03-25T23:10:49.264Z,99702.35
2019-03-25T23:13:18.799Z,99700.91
2019-03-25T23:15:48.259Z,99707.42
2019-03-25T23:18:37.060Z,99705.27
2019-03-25T23:21:06.519Z,99703.89
2019-03-25T23:23:36.000Z,99697.77
2019-03-25T23:26:05.500Z,99701.09
2019-03-25T23:28:34.993Z,99703.92
2019-03-25T23:31:05.981Z,99706.94
2019-03-25T23:33:54.799Z,99712.70
2019-03-25T23:36:24.256Z,99715.73
2019-03-25T23:38:53.743Z,99711.20
2019-03-25T23:41:23.220Z,99714.62
2019-03-25T23:43:52.776Z,99706.88
2019-03-25T23:46:22.261Z,99712.73
2019-03-25T23:49:11.076Z,99714.20
2019-03-25T23:51:40.564Z,99718.73
2019-03-25T23:54:11.630Z,99723.90
2019-03-25T23:56:42.322Z,99726.80
2019-03-25T23:59:12.112Z,99729.06
